createdAt,value
2022-11-16T00:02:40.940Z,9.53
2022-11-16T00:06:42.490Z,9.85
2022-11-16T00:10:43.917Z,9.91
2022-11-16T00:14:45.421Z,9.52
2022-11-16T00:18:46.819Z,9.64
2022-11-16T00:22:48.367Z,9.57
2022-11-16T00:26:51.076Z,9.72
2022-11-16T00:31:12.668Z,9.69
2022-11-16T00:35:39.938Z,9.73
2022-11-16T00:40:01.401Z,9.40
2022-11-16T00:44:22.847Z,9.38
2022-11-16T00:48:44.400Z,9.15
2022-11-16T00:53:07.309Z,9.30
2022-11-16T00:57:28.688Z,9.48
2022-11-16T01:01:50.376Z,9.21
2022-11-16T01:06:14.011Z,9.23
2022-11-16T01:10:41.135Z,9.07
2022-11-16T01:15:09.000Z,9.62
2022-11-16T01:19:30.612Z,9.44
2022-11-16T01:23:52.465Z,8.80
2022-11-16T01:28:13.859Z,9.12
2022-11-16T01:32:44.128Z,9.10
2022-11-16T01:37:05.810Z,9.18
2022-11-16T01:41:31.758Z,9.38
2022-11-16T01:45:55.683Z,8.83
2022-11-16T01:50:18.891Z,8.99
2022-11-16T01:54:46.379Z,8.89
2022-11-16T01:59:08.357Z,8.90
2022-11-16T02:03:30.132Z,9.28
2022-11-16T02:08:41.632Z,9.35
2022-11-16T02:13:16.131Z,9.30
2022-11-16T02:18:11.282Z,9.12
2022-11-16T02:23:00.341Z,9.29
2022-11-16T02:27:50.810Z,9.33
2022-11-16T02:32:26.437Z,8.98
2022-11-16T02:36:52.921Z,9.36
2022-11-16T02:41:19.836Z,9.21
2022-11-16T02:45:48.377Z,9.04
2022-11-16T02:50:16.137Z,8.78
2022-11-16T02:54:37.590Z,8.90
2022-11-16T02:59:00.151Z,8.88
2022-11-16T03:03:52.439Z,8.60
2022-11-16T03:08:35.229Z,8.87
2022-11-16T03:13:01.888Z,8.48
2022-11-16T03:17:29.485Z,8.53
2022-11-16T03:22:01.075Z,9.06
2022-11-16T03:26:29.749Z,8.77
2022-11-16T03:31:13.279Z,8.97
2022-11-16T03:35:59.530Z,9.14
2022-11-16T03:40:24.170Z,8.78
2022-11-16T03:44:49.137Z,8.82
2022-11-16T03:49:10.563Z,9.20
2022-11-16T03:53:32.658Z,8.81
2022-11-16T03:57:54.122Z,8.98
2022-11-16T04:02:16.081Z,9.08
2022-11-16T04:06:56.646Z,9.38
2022-11-16T04:11:40.621Z,9.19
2022-11-16T04:16:21.832Z,9.09
2022-11-16T04:21:03.069Z,8.96
2022-11-16T04:25:30.560Z,8.94
2022-11-16T04:29:53.328Z,9.24
2022-11-16T04:34:33.380Z,9.18
2022-11-16T04:38:55.173Z,8.90
2022-11-16T04:43:17.801Z,8.98
2022-11-16T04:47:40.011Z,8.74
2022-11-16T04:52:02.121Z,8.98
2022-11-16T04:56:25.785Z,9.01
2022-11-16T05:00:47.717Z,9.12
2022-11-16T05:05:09.979Z,9.16
2022-11-16T05:09:34.338Z,9.06
2022-11-16T05:13:55.928Z,8.89
2022-11-16T05:18:17.643Z,9.13
2022-11-16T05:22:39.469Z,9.30
2022-11-16T05:26:41.279Z,9.33
2022-11-16T05:30:45.632Z,9.03
2022-11-16T05:34:50.004Z,9.24
2022-11-16T05:38:56.121Z,9.19
2022-11-16T05:43:00.192Z,9.40
2022-11-16T05:47:05.970Z,9.41
2022-11-16T05:51:08.641Z,9.02
2022-11-16T05:55:10.319Z,9.12
2022-11-16T05:59:18.978Z,9.60
2022-11-16T06:03:23.086Z,9.01
2022-11-16T06:07:24.621Z,9.33
2022-11-16T06:11:28.284Z,9.25
2022-11-16T06:15:38.189Z,9.57
2022-11-16T06:19:41.770Z,9.48
2022-11-16T06:23:43.655Z,9.47
2022-11-16T06:27:45.354Z,9.44
2022-11-16T06:31:50.521Z,9.39
2022-11-16T06:35:52.170Z,9.57
2022-11-16T06:39:57.194Z,9.61
2022-11-16T06:43:58.743Z,9.16
2022-11-16T06:48:05.952Z,9.40
2022-11-16T06:52:07.609Z,9.67
2022-11-16T06:56:13.722Z,9.65
2022-11-16T07:00:20.098Z,9.53
2022-11-16T07:04:24.048Z,9.48
2022-11-16T07:08:30.025Z,9.95
2022-11-16T07:12:31.911Z,9.66
2022-11-16T07:16:36.267Z,9.75
2022-11-16T07:20:38.870Z,9.35
2022-11-16T07:24:40.471Z,9.69
2022-11-16T07:28:47.867Z,9.57
2022-11-16T07:32:51.814Z,9.80
2022-11-16T07:37:12.036Z,9.40
2022-11-16T07:41:17.801Z,9.76
2022-11-16T07:45:25.896Z,10.01
2022-11-16T07:49:32.402Z,9.79
2022-11-16T07:53:39.671Z,9.54
2022-11-16T07:57:41.437Z,9.61
2022-11-16T08:01:46.875Z,9.53
2022-11-16T08:05:48.866Z,9.75
2022-11-16T08:09:50.431Z,9.84
2022-11-16T08:13:52.215Z,9.73
2022-11-16T08:17:54.863Z,10.02
2022-11-16T08:21:56.373Z,9.74
2022-11-16T08:26:00.850Z,9.69
2022-11-16T08:30:04.717Z,10.00
2022-11-16T08:34:07.028Z,9.90
2022-11-16T08:38:10.362Z,9.68
2022-11-16T08:42:11.864Z,9.67
2022-11-16T08:46:17.536Z,9.66
2022-11-16T08:50:24.309Z,10.18
2022-11-16T08:54:28.731Z,9.82
2022-11-16T08:58:31.370Z,10.12
2022-11-16T09:02:33.163Z,10.30
2022-11-16T09:06:35.725Z,10.44
2022-11-16T09:10:37.646Z,10.13
2022-11-16T09:14:39.230Z,10.48
2022-11-16T09:18:40.651Z,10.42
2022-11-16T09:22:42.117Z,10.53
2022-11-16T09:26:43.584Z,10.21
2022-11-16T09:30:48.027Z,10.42
2022-11-16T09:34:49.444Z,10.44
2022-11-16T09:43:46.145Z,10.11
2022-11-16T09:47:59.347Z,10.16
2022-11-16T09:52:06.165Z,10.15
2022-11-16T09:56:14.509Z,10.52
2022-11-16T10:00:24.884Z,9.92
2022-11-16T10:04:58.677Z,10.16
2022-11-16T10:09:00.403Z,10.22
2022-11-16T10:13:23.789Z,10.44
2022-11-16T10:17:37.361Z,10.51
2022-11-16T10:22:08.264Z,10.81
2022-11-16T10:26:32.011Z,10.22
2022-11-16T10:30:43.159Z,10.59
2022-11-16T10:35:00.013Z,10.40
2022-11-16T10:39:02.567Z,11.25
2022-11-16T10:43:23.786Z,10.86
2022-11-16T10:47:36.629Z,10.67
2022-11-16T10:51:38.151Z,10.66
2022-11-16T10:55:39.566Z,10.47
2022-11-16T10:59:44.565Z,10.95
2022-11-16T11:03:45.979Z,10.25
2022-11-16T11:07:59.855Z,10.31
2022-11-16T11:12:35.189Z,10.16
2022-11-16T11:16:37.914Z,10.21
2022-11-16T11:20:44.808Z,10.08
2022-11-16T11:24:48.530Z,10.15
2022-11-16T11:28:50.111Z,10.51
2022-11-16T11:32:52.884Z,10.34
2022-11-16T11:37:01.867Z,10.12
2022-11-16T11:41:05.205Z,10.33
2022-11-16T11:45:13.037Z,10.43
2022-11-16T11:49:23.616Z,10.30
2022-11-16T11:53:50.155Z,10.29
2022-11-16T11:57:53.711Z,10.89
2022-11-16T12:02:16.228Z,10.95
2022-11-16T12:06:43.603Z,10.72
2022-11-16T12:10:52.568Z,10.80
2022-11-16T12:15:05.309Z,10.90
2022-11-16T12:19:25.244Z,10.79
2022-11-16T12:23:54.758Z,10.85
2022-11-16T12:28:15.993Z,10.64
2022-11-16T12:32:23.736Z,10.16
2022-11-16T12:36:40.144Z,10.10
2022-11-16T12:40:58.858Z,10.32
2022-11-16T12:45:06.377Z,10.44
2022-11-16T12:49:27.239Z,10.33
2022-11-16T12:53:51.434Z,10.22
2022-11-16T12:58:11.932Z,10.47
2022-11-16T13:02:51.151Z,10.47
2022-11-16T13:07:10.973Z,10.54
2022-11-16T13:11:22.241Z,10.52
2022-11-16T13:15:33.539Z,10.09
2022-11-16T13:19:41.887Z,10.55
2022-11-16T13:23:53.850Z,9.99
2022-11-16T13:28:08.634Z,10.16
2022-11-16T13:32:21.175Z,10.21
2022-11-16T13:36:39.226Z,10.33
2022-11-16T13:40:41.152Z,10.11
2022-11-16T13:44:45.191Z,10.12
2022-11-16T13:48:51.230Z,9.76
2022-11-16T13:53:57.665Z,9.83
2022-11-16T13:57:33.742Z,9.71
2022-11-16T14:01:55.059Z,9.55
2022-11-16T14:05:57.500Z,9.95
2022-11-16T14:09:59.363Z,9.78
2022-11-16T14:14:33.994Z,10.01
2022-11-16T14:18:37.155Z,9.92
2022-11-16T14:22:50.543Z,9.53
2022-11-16T14:27:13.442Z,9.95
2022-11-16T14:31:22.820Z,9.77
2022-11-16T14:35:34.929Z,9.63
2022-11-16T14:39:43.353Z,9.92
2022-11-16T14:43:50.301Z,9.83
2022-11-16T14:47:55.419Z,9.60
2022-11-16T14:52:00.714Z,9.63
2022-11-16T14:56:20.471Z,9.45
2022-11-16T15:00:25.536Z,9.46
2022-11-16T15:04:27.583Z,9.51
2022-11-16T15:08:38.479Z,9.49
2022-11-16T15:12:42.361Z,9.54
2022-11-16T15:16:55.092Z,9.51
2022-11-16T15:20:56.571Z,9.34
2022-11-16T15:25:00.548Z,9.34
2022-11-16T15:29:02.040Z,9.12
2022-11-16T15:33:10.367Z,8.88
2022-11-16T15:37:12.390Z,8.78
2022-11-16T15:41:16.174Z,8.72
2022-11-16T15:45:22.376Z,8.91
2022-11-16T15:49:33.038Z,8.85
2022-11-16T15:53:48.883Z,8.93
2022-11-16T15:58:25.704Z,8.83
2022-11-16T16:02:30.188Z,8.44
2022-11-16T16:06:57.059Z,8.45
2022-11-16T16:11:05.185Z,8.20
2022-11-16T16:15:31.060Z,8.33
2022-11-16T16:19:36.104Z,8.45
2022-11-16T16:23:53.781Z,8.37
2022-11-16T16:27:55.556Z,8.43
2022-11-16T16:31:57.153Z,8.61
2022-11-16T16:35:58.642Z,8.51
2022-11-16T16:40:00.281Z,8.30
2022-11-16T16:44:01.765Z,8.35
2022-11-16T16:48:03.310Z,8.62
2022-11-16T16:52:05.474Z,8.64
2022-11-16T16:56:14.522Z,8.18
2022-11-16T17:00:16.719Z,8.23
2022-11-16T17:04:18.438Z,8.39
2022-11-16T17:08:19.908Z,8.25
2022-11-16T17:12:21.385Z,8.68
2022-11-16T17:16:23.136Z,8.63
2022-11-16T17:20:24.748Z,8.49
2022-11-16T17:24:26.245Z,8.50
2022-11-16T17:28:27.932Z,8.55
2022-11-16T17:32:32.222Z,8.52
2022-11-16T17:36:33.783Z,8.56
2022-11-16T17:40:35.265Z,8.14
2022-11-16T17:44:36.733Z,8.32
2022-11-16T17:48:39.817Z,8.17
2022-11-16T17:52:41.288Z,8.42
2022-11-16T17:56:42.792Z,8.01
2022-11-16T18:00:44.316Z,8.25
2022-11-16T18:04:50.899Z,7.97
2022-11-16T18:08:53.514Z,7.97
2022-11-16T18:12:54.989Z,7.80
2022-11-16T18:16:56.473Z,7.72
2022-11-16T18:21:02.169Z,7.62
2022-11-16T18:25:03.859Z,7.78
2022-11-16T18:29:06.619Z,7.75
2022-11-16T18:33:08.408Z,7.49
2022-11-16T18:37:09.871Z,7.38
2022-11-16T18:41:11.256Z,7.37
2022-11-16T18:45:12.794Z,7.04
2022-11-16T18:49:14.249Z,7.20
2022-11-16T18:53:15.710Z,7.08
2022-11-16T18:57:17.143Z,7.43
2022-11-16T19:01:20.703Z,7.41
2022-11-16T19:05:22.228Z,7.50
2022-11-16T19:09:23.717Z,7.40
2022-11-16T19:13:25.124Z,7.67
2022-11-16T19:17:26.986Z,7.29
2022-11-16T19:21:29.021Z,7.67
2022-11-16T19:25:30.459Z,7.76
2022-11-16T19:29:31.880Z,7.70
2022-11-16T19:33:33.690Z,7.59
2022-11-16T19:37:35.488Z,7.88
2022-11-16T19:41:36.888Z,7.71
2022-11-16T19:45:38.353Z,7.68
2022-11-16T19:49:39.808Z,7.77
2022-11-16T19:53:41.726Z,7.79
2022-11-16T19:57:43.162Z,7.52
2022-11-16T20:01:44.719Z,7.71
2022-11-16T20:05:46.146Z,7.78
2022-11-16T20:09:53.071Z,7.71
2022-11-16T20:13:56.663Z,7.70
2022-11-16T20:17:58.129Z,7.63
2022-11-16T20:21:59.868Z,7.40
2022-11-16T20:26:09.372Z,7.42
2022-11-16T20:30:11.387Z,7.34
2022-11-16T20:34:14.973Z,7.71
2022-11-16T20:38:16.384Z,7.78
2022-11-16T20:42:19.069Z,7.75
2022-11-16T20:46:22.621Z,7.37
2022-11-16T20:50:24.095Z,7.42
2022-11-16T20:54:25.568Z,7.36
2022-11-16T20:58:26.985Z,7.56
2022-11-16T21:02:28.639Z,7.42
2022-11-16T21:06:30.800Z,7.10
2022-11-16T21:10:35.338Z,7.30
2022-11-16T21:14:36.800Z,7.20
2022-11-16T21:18:39.369Z,7.23
2022-11-16T21:22:40.802Z,7.03
2022-11-16T21:26:42.253Z,7.02
2022-11-16T21:30:55.120Z,6.95
2022-11-16T21:34:56.559Z,7.00
2022-11-16T21:38:58.956Z,7.10
2022-11-16T21:43:00.424Z,7.29
2022-11-16T21:47:01.851Z,7.64
2022-11-16T21:51:05.848Z,7.29
2022-11-16T21:55:07.646Z,6.90
2022-11-16T21:59:09.109Z,6.57
2022-11-16T22:03:10.509Z,6.69
2022-11-16T22:07:34.095Z,6.29
2022-11-16T22:11:35.533Z,6.30
2022-11-16T22:15:37.004Z,6.34
2022-11-16T22:19:38.425Z,6.20
2022-11-16T22:23:40.307Z,6.32
2022-11-16T22:27:58.698Z,5.83
2022-11-16T22:32:03.769Z,5.82
2022-11-16T22:36:08.195Z,5.66
2022-11-16T22:40:13.599Z,5.57
2022-11-16T22:44:18.011Z,5.12
2022-11-16T22:48:19.469Z,5.07
2022-11-16T22:52:20.935Z,5.30
2022-11-16T22:56:23.219Z,5.05
2022-11-16T23:00:24.662Z,4.83
2022-11-16T23:04:26.331Z,4.88
2022-11-16T23:08:28.030Z,4.54
2022-11-16T23:12:48.469Z,4.76
2022-11-16T23:16:50.242Z,4.70
2022-11-16T23:21:10.451Z,4.63
2022-11-16T23:25:32.741Z,4.80
2022-11-16T23:29:34.381Z,4.45
2022-11-16T23:33:44.478Z,4.52
2022-11-16T23:38:00.112Z,4.79
2022-11-16T23:42:20.096Z,4.60
2022-11-16T23:46:21.508Z,4.82
2022-11-16T23:50:23.088Z,4.56
2022-11-16T23:54:24.536Z,4.23
2022-11-16T23:58:25.926Z,4.55
